Accueil
METAR-TAF:

METAR-TAF

Aéroports :

Tinian, Îles Mariannes, États-Unis

latitude: 14-59N, longitude: 145-37E, altitude: 82 m

Observation

Le bulletin a été fait il y a 11 heures et 2 minutes, à 08:58 UTC
Vent 7 kt de est
Température 29°C
Humidité 74%
Pression 1013 hPa
Visibilité: 11.3 km
Quelques nuages à une hauteur de 2200 ft
Nuages épars à une hauteur de 8000 ft

METAR: PGWT 270858Z COR 08007KT 7SM FEW022 SCT080 29/24 A2991 RMK LAST

Heure: 06:00 (20:00 UTC)

Prévision

Le bulletin a été fait il y a 14 heures et 40 minutes, à 05:20 UTC
Prévision valable du 27 à 06 UTC au 28 à 06 UTC
Vent 12 kt de est avec des rafales jusqu'à 18 kt
Visibilité: 10 km
Nuages épars à une hauteur de 2000 ft

TAF: PGWT 270520Z 2706/2806 08012G18KT P6SM SCT020

Observations et prévisions météorologiques de plus de 4000 aéroports (messages METAR et TAF).

Les stations disponibles sont représentées par des disques jaunes et rouges sur la carte.

Passer la souris dessus pour voir le nom de la station.

Cliquer dessus pour voir les observations et prévisions météorologiques.

Pour changer de carte: cliquez sur les boutons verts avec une croix noire pour zoomer, sur le bouton vert avec un tiret pour effectuer un zoom arrière, ou sur les flèches vertes pour les cartes adjacentes.


METAR-TAF: